createdAt,value
2023-04-28T00:00:43.374Z,12.20
2023-04-28T00:03:13.244Z,12.20
2023-04-28T00:05:42.201Z,12.10
2023-04-28T00:08:10.735Z,12.10
2023-04-28T00:10:39.623Z,12.10
2023-04-28T00:13:08.089Z,12.00
2023-04-28T00:15:36.514Z,12.00
2023-04-28T00:18:04.956Z,12.10
2023-04-28T00:20:34.807Z,12.10
2023-04-28T00:23:03.236Z,12.10
2023-04-28T00:25:31.723Z,12.10
2023-04-28T00:28:00.244Z,12.10
2023-04-28T00:30:28.709Z,12.10
2023-04-28T00:32:57.250Z,12.00
2023-04-28T00:35:25.707Z,12.40
2023-04-28T00:37:55.226Z,12.40
2023-04-28T00:40:23.696Z,12.20
2023-04-28T00:42:52.059Z,12.00
2023-04-28T00:45:20.794Z,12.30
2023-04-28T00:47:49.195Z,12.00
2023-04-28T00:50:18.528Z,12.10
2023-04-28T00:52:47.754Z,12.10
2023-04-28T00:55:18.277Z,12.40
2023-04-28T00:57:47.195Z,12.30
2023-04-28T01:00:17.363Z,12.10
2023-04-28T01:02:46.173Z,12.00
2023-04-28T01:05:15.879Z,12.10
2023-04-28T01:07:44.282Z,11.90
2023-04-28T01:10:12.961Z,11.80
2023-04-28T01:12:42.606Z,11.70
2023-04-28T01:15:17.080Z,11.70
2023-04-28T01:17:46.158Z,11.80
2023-04-28T01:20:14.849Z,11.80
2023-04-28T01:22:43.268Z,11.80
2023-04-28T01:25:13.026Z,11.80
2023-04-28T01:27:41.479Z,11.80
2023-04-28T01:30:11.196Z,11.70
2023-04-28T01:32:39.633Z,11.80
2023-04-28T01:35:08.419Z,11.80
2023-04-28T01:37:36.895Z,11.80
2023-04-28T01:40:05.860Z,11.70
2023-04-28T01:42:35.509Z,11.60
2023-04-28T01:45:05.340Z,11.80
2023-04-28T01:47:34.152Z,11.80
2023-04-28T01:50:03.060Z,11.80
2023-04-28T01:52:31.497Z,11.60
2023-04-28T01:54:59.882Z,11.60
2023-04-28T01:57:29.213Z,11.50
2023-04-28T01:59:59.643Z,11.60
2023-04-28T02:02:28.208Z,11.70
2023-04-28T02:07:26.460Z,11.70
2023-04-28T02:09:55.294Z,11.90
2023-04-28T02:12:23.721Z,11.90
2023-04-28T02:14:52.337Z,11.80
2023-04-28T02:17:21.935Z,12.00
2023-04-28T02:19:55.271Z,11.80
2023-04-28T02:22:23.899Z,11.70
2023-04-28T02:24:52.172Z,11.70
2023-04-28T02:27:20.802Z,11.60
2023-04-28T02:29:49.193Z,11.50
2023-04-28T02:32:17.569Z,11.50
2023-04-28T02:34:47.345Z,11.50
2023-04-28T02:37:15.774Z,11.50
2023-04-28T02:39:44.579Z,11.60
2023-04-28T02:42:13.028Z,11.60
2023-04-28T02:44:41.243Z,11.60
2023-04-28T02:47:09.763Z,11.50
2023-04-28T02:49:38.601Z,11.50
2023-04-28T02:52:08.394Z,11.80
2023-04-28T02:54:37.411Z,12.10
2023-04-28T02:57:05.961Z,11.80
2023-04-28T02:59:35.448Z,12.20
2023-04-28T03:02:03.860Z,12.10
2023-04-28T03:04:32.482Z,12.00
2023-04-28T03:07:00.889Z,11.90
2023-04-28T03:09:30.570Z,11.80
2023-04-28T03:11:58.929Z,11.90
2023-04-28T03:14:27.598Z,11.70
2023-04-28T03:16:56.473Z,11.70
2023-04-28T03:19:25.072Z,11.80
2023-04-28T03:21:53.510Z,11.90
2023-04-28T03:24:22.436Z,11.80
2023-04-28T03:26:52.152Z,11.80
2023-04-28T03:29:21.169Z,11.70
2023-04-28T03:31:49.540Z,11.70
2023-04-28T03:34:18.179Z,11.70
2023-04-28T03:36:46.733Z,11.80
2023-04-28T03:39:15.185Z,11.80
2023-04-28T03:41:43.630Z,11.80
2023-04-28T03:44:13.236Z,11.90
2023-04-28T03:46:41.915Z,11.90
2023-04-28T03:49:10.379Z,12.00
2023-04-28T03:51:38.762Z,12.00
2023-04-28T03:54:07.434Z,12.00
2023-04-28T03:56:36.290Z,12.10
2023-04-28T03:59:04.987Z,12.10
2023-04-28T04:01:34.625Z,12.10
2023-04-28T04:04:03.410Z,12.10
2023-04-28T04:06:32.415Z,12.10
2023-04-28T04:09:01.186Z,12.10
2023-04-28T04:11:29.718Z,12.20
2023-04-28T04:13:58.326Z,12.20
2023-04-28T04:16:26.971Z,12.20
2023-04-28T04:18:56.954Z,12.20
2023-04-28T04:21:25.346Z,12.20
2023-04-28T04:23:53.904Z,12.30
2023-04-28T04:26:22.770Z,12.40
2023-04-28T04:28:51.188Z,12.40
2023-04-28T04:31:19.973Z,12.50
2023-04-28T04:33:48.719Z,12.50
2023-04-28T04:36:18.429Z,12.40
2023-04-28T04:38:47.018Z,12.50
2023-04-28T04:41:15.764Z,12.60
2023-04-28T04:43:44.215Z,12.60
2023-04-28T04:46:12.495Z,12.70
2023-04-28T04:48:41.283Z,12.80
2023-04-28T04:51:09.750Z,12.90
2023-04-28T04:53:39.528Z,13.00
2023-04-28T04:56:07.966Z,13.10
2023-04-28T04:58:36.509Z,13.10
2023-04-28T05:01:06.019Z,13.30
2023-04-28T05:03:34.542Z,13.40
2023-04-28T05:06:03.807Z,13.60
2023-04-28T05:08:32.206Z,13.60
2023-04-28T05:11:02.235Z,13.60
2023-04-28T05:13:30.885Z,13.60
2023-04-28T05:15:59.331Z,13.50
2023-04-28T05:18:27.930Z,13.70
2023-04-28T05:20:56.383Z,13.80
2023-04-28T05:23:25.141Z,13.60
2023-04-28T05:25:53.722Z,13.80
2023-04-28T05:28:24.305Z,14.20
2023-04-28T05:30:52.783Z,14.30
2023-04-28T05:33:21.254Z,14.40
2023-04-28T05:35:50.141Z,14.20
2023-04-28T05:38:18.742Z,14.30
2023-04-28T05:40:47.228Z,14.20
2023-04-28T05:43:15.677Z,14.20
2023-04-28T05:45:45.332Z,14.30
2023-04-28T05:48:13.989Z,14.50
2023-04-28T05:50:42.379Z,14.40
2023-04-28T05:53:11.024Z,14.30
2023-04-28T05:55:39.637Z,14.40
2023-04-28T05:58:08.190Z,14.30
2023-04-28T06:00:36.770Z,14.20
2023-04-28T06:03:07.066Z,14.30
2023-04-28T06:05:36.113Z,14.50
2023-04-28T06:08:04.753Z,14.40
2023-04-28T06:10:33.440Z,14.30
2023-04-28T06:13:02.606Z,14.50
2023-04-28T06:15:31.424Z,14.30
2023-04-28T06:18:00.296Z,14.30
2023-04-28T06:20:30.073Z,14.10
2023-04-28T06:22:58.764Z,14.00
2023-04-28T06:25:27.210Z,14.10
2023-04-28T06:27:55.584Z,14.00
2023-04-28T06:30:24.648Z,13.80
2023-04-28T06:32:53.385Z,13.80
2023-04-28T06:35:21.940Z,13.80
2023-04-28T06:37:51.593Z,13.80
2023-04-28T06:40:20.129Z,13.70
2023-04-28T06:42:48.783Z,13.60
2023-04-28T06:45:17.245Z,13.60
2023-04-28T06:47:46.323Z,13.50
2023-04-28T06:50:14.919Z,13.60
2023-04-28T06:52:43.326Z,13.40
2023-04-28T06:55:17.191Z,13.60
2023-04-28T06:57:45.723Z,13.40
2023-04-28T07:00:15.182Z,13.30
2023-04-28T07:02:43.824Z,13.30
2023-04-28T07:05:13.105Z,13.40
2023-04-28T07:07:43.251Z,13.30
2023-04-28T07:10:13.410Z,13.40
2023-04-28T07:12:41.808Z,13.60
2023-04-28T07:15:11.032Z,13.70
2023-04-28T07:17:39.568Z,13.90
2023-04-28T07:20:09.034Z,13.60
2023-04-28T07:22:38.577Z,13.30
2023-04-28T07:25:07.558Z,13.60
2023-04-28T07:27:37.434Z,13.80
2023-04-28T07:30:19.010Z,13.60
2023-04-28T07:32:54.941Z,13.80
2023-04-28T07:35:23.777Z,13.80
2023-04-28T07:37:52.262Z,13.80
2023-04-28T07:40:20.954Z,14.10
2023-04-28T07:42:51.678Z,14.20
2023-04-28T07:45:20.184Z,13.80
2023-04-28T07:47:48.651Z,14.10
2023-04-28T07:50:18.114Z,13.90
2023-04-28T07:52:46.669Z,14.00
2023-04-28T07:55:15.051Z,13.90
2023-04-28T07:57:43.612Z,13.90
2023-04-28T08:00:14.686Z,13.80
2023-04-28T08:02:43.322Z,13.90
2023-04-28T08:05:12.055Z,14.00
2023-04-28T08:07:40.687Z,14.20
2023-04-28T08:10:11.733Z,14.30
2023-04-28T08:12:40.993Z,14.50
2023-04-28T08:15:10.727Z,14.40
2023-04-28T08:17:40.531Z,14.90
2023-04-28T08:20:10.145Z,14.80
2023-04-28T08:22:38.835Z,14.70
2023-04-28T08:25:07.872Z,15.00
2023-04-28T08:27:38.110Z,14.80
2023-04-28T08:30:07.362Z,15.20
2023-04-28T08:32:35.952Z,15.50
2023-04-28T08:35:06.039Z,15.40
2023-04-28T08:37:34.524Z,15.60
2023-04-28T08:40:07.730Z,15.80
2023-04-28T08:42:37.140Z,15.40
2023-04-28T08:45:06.482Z,15.30
2023-04-28T08:47:36.786Z,15.30
2023-04-28T08:50:08.790Z,15.50
2023-04-28T08:52:37.720Z,15.20
2023-04-28T08:55:09.572Z,15.30
2023-04-28T08:57:41.340Z,15.20
2023-04-28T09:00:11.301Z,14.90
2023-04-28T09:02:42.446Z,15.10
2023-04-28T09:05:14.167Z,15.30
2023-04-28T09:07:46.486Z,15.40
2023-04-28T09:10:19.601Z,15.10
2023-04-28T09:12:49.064Z,14.90
2023-04-28T09:15:34.525Z,15.00
2023-04-28T09:18:03.535Z,15.00
2023-04-28T09:20:36.447Z,15.10
2023-04-28T09:23:18.739Z,14.90
2023-04-28T09:26:01.353Z,14.90
2023-04-28T09:28:30.386Z,15.10
2023-04-28T09:30:59.213Z,15.20
2023-04-28T09:33:27.999Z,15.10
2023-04-28T09:35:57.903Z,15.10
2023-04-28T09:38:27.166Z,15.40
2023-04-28T09:40:57.888Z,15.20
2023-04-28T09:43:27.702Z,14.90
2023-04-28T09:45:56.485Z,14.90
2023-04-28T09:48:33.042Z,15.00
2023-04-28T09:51:04.374Z,15.10
2023-04-28T09:53:33.042Z,15.30
2023-04-28T09:56:02.490Z,15.40
2023-04-28T09:58:32.366Z,15.50
2023-04-28T10:01:01.800Z,15.70
2023-04-28T10:03:31.890Z,15.40
2023-04-28T10:06:03.124Z,15.30
2023-04-28T10:08:31.976Z,15.20
2023-04-28T10:11:00.871Z,15.20
2023-04-28T10:13:29.451Z,15.20
2023-04-28T10:15:58.674Z,15.40
2023-04-28T10:18:27.854Z,15.40
2023-04-28T10:21:01.274Z,15.30
2023-04-28T10:24:10.970Z,15.40
2023-04-28T10:27:08.533Z,15.10
2023-04-28T10:29:37.755Z,15.20
2023-04-28T10:32:26.503Z,15.50
2023-04-28T10:35:15.060Z,15.50
2023-04-28T10:38:05.792Z,15.40
2023-04-28T10:40:37.529Z,15.60
2023-04-28T10:43:06.511Z,15.30
2023-04-28T10:46:07.214Z,15.60
2023-04-28T10:48:57.251Z,15.40
2023-04-28T10:51:30.004Z,15.40
2023-04-28T10:54:28.154Z,15.50
2023-04-28T10:57:23.049Z,15.80
2023-04-28T10:59:52.358Z,16.30
2023-04-28T11:02:43.634Z,16.30
2023-04-28T11:05:19.301Z,16.00
2023-04-28T11:08:33.349Z,15.90
2023-04-28T11:11:25.093Z,15.50
2023-04-28T11:13:55.995Z,15.70
2023-04-28T11:16:27.127Z,15.60
2023-04-28T11:19:03.860Z,15.70
2023-04-28T11:21:33.843Z,15.70
2023-04-28T11:24:02.438Z,15.60
2023-04-28T11:26:30.963Z,15.50
2023-04-28T11:29:01.211Z,15.60
2023-04-28T11:31:29.544Z,15.80
2023-04-28T11:34:08.372Z,15.80
2023-04-28T11:36:38.198Z,15.90
2023-04-28T11:39:08.234Z,16.10
2023-04-28T11:41:37.184Z,16.20
2023-04-28T11:44:13.846Z,16.10
2023-04-28T11:46:51.547Z,16.40
2023-04-28T11:49:21.311Z,16.40
2023-04-28T11:51:50.397Z,16.10
2023-04-28T11:54:23.548Z,16.20
2023-04-28T11:56:52.463Z,16.20
2023-04-28T11:59:26.039Z,16.00
2023-04-28T12:01:57.273Z,15.90
2023-04-28T12:04:29.903Z,16.00
2023-04-28T12:07:03.064Z,15.90
2023-04-28T12:09:32.329Z,16.30
2023-04-28T12:12:02.970Z,16.20
2023-04-28T12:14:35.616Z,16.40
2023-04-28T12:17:04.368Z,16.40
2023-04-28T12:19:45.161Z,16.70
2023-04-28T12:22:17.472Z,17.10
2023-04-28T12:24:46.444Z,16.40
2023-04-28T12:27:21.561Z,16.30
2023-04-28T12:29:51.625Z,16.20
2023-04-28T12:32:20.428Z,16.10
2023-04-28T12:34:50.721Z,16.30
2023-04-28T12:37:19.304Z,16.60
2023-04-28T12:39:47.684Z,16.70
2023-04-28T12:42:16.091Z,16.60
2023-04-28T12:44:45.472Z,16.70
2023-04-28T12:47:15.340Z,16.50
2023-04-28T12:49:44.300Z,16.50
2023-04-28T12:52:12.865Z,16.20
2023-04-28T12:54:47.002Z,16.60
2023-04-28T12:57:15.553Z,16.90
2023-04-28T12:59:44.171Z,16.80
2023-04-28T13:02:14.862Z,17.30
2023-04-28T13:04:46.065Z,17.20
2023-04-28T13:07:15.181Z,17.00
2023-04-28T13:09:43.880Z,17.40
2023-04-28T13:12:13.865Z,17.10
2023-04-28T13:14:42.347Z,17.20
2023-04-28T13:17:12.475Z,17.20
2023-04-28T13:19:42.468Z,17.00
2023-04-28T13:22:11.092Z,17.10
2023-04-28T13:24:39.715Z,17.00
2023-04-28T13:27:10.012Z,16.70
2023-04-28T13:29:39.285Z,17.30
2023-04-28T13:32:08.355Z,17.50
2023-04-28T13:34:38.124Z,17.70
2023-04-28T13:37:07.855Z,17.60
2023-04-28T13:39:36.356Z,17.00
2023-04-28T13:42:05.972Z,16.90
2023-04-28T13:44:34.593Z,16.60
2023-04-28T13:47:05.168Z,17.00
2023-04-28T13:49:33.609Z,16.80
2023-04-28T13:52:03.606Z,16.80
2023-04-28T13:54:33.186Z,17.20
2023-04-28T13:57:01.878Z,17.00
2023-04-28T13:59:30.111Z,17.20
2023-04-28T14:01:58.490Z,16.90
2023-04-28T14:04:27.039Z,17.10
2023-04-28T14:06:55.673Z,17.40
2023-04-28T14:09:25.119Z,16.70
2023-04-28T14:11:56.630Z,16.30
2023-04-28T14:14:25.229Z,16.00
2023-04-28T14:16:53.730Z,16.30
2023-04-28T14:19:22.489Z,16.60
2023-04-28T14:21:50.985Z,16.40
2023-04-28T14:24:20.140Z,16.50
2023-04-28T14:26:49.623Z,16.40
2023-04-28T14:29:19.235Z,16.70
2023-04-28T14:31:47.611Z,17.10
2023-04-28T14:34:16.033Z,16.80
2023-04-28T14:36:44.473Z,16.80
2023-04-28T14:39:12.839Z,17.10
2023-04-28T14:41:41.260Z,16.80
2023-04-28T14:44:09.708Z,16.60
2023-04-28T14:46:39.604Z,16.50
2023-04-28T14:49:09.418Z,16.70
2023-04-28T14:51:37.833Z,16.60
2023-04-28T14:54:06.252Z,16.30
2023-04-28T14:56:34.786Z,16.10
2023-04-28T14:59:03.418Z,16.20
2023-04-28T15:01:32.619Z,16.30
2023-04-28T15:04:03.110Z,16.20
2023-04-28T15:06:32.105Z,15.80
2023-04-28T15:09:00.542Z,16.10
2023-04-28T15:11:28.874Z,16.00
2023-04-28T15:13:57.361Z,15.90
2023-04-28T15:16:25.810Z,15.80
2023-04-28T15:18:54.328Z,16.00
2023-04-28T15:21:24.314Z,16.10
2023-04-28T15:23:52.690Z,16.10
2023-04-28T15:26:21.221Z,15.90
2023-04-28T15:28:50.039Z,15.60
2023-04-28T15:31:18.495Z,15.70
2023-04-28T15:33:47.058Z,15.90
2023-04-28T15:36:15.437Z,16.20
2023-04-28T15:38:45.563Z,16.10
2023-04-28T15:41:14.978Z,16.10
2023-04-28T15:43:44.368Z,15.90
2023-04-28T15:46:14.721Z,16.00
2023-04-28T15:48:43.714Z,16.00
2023-04-28T15:51:12.695Z,16.00
2023-04-28T15:53:41.747Z,16.00
2023-04-28T15:56:11.503Z,16.10
2023-04-28T15:58:39.965Z,16.10
2023-04-28T16:01:08.748Z,15.90
2023-04-28T16:03:37.539Z,15.60
2023-04-28T16:06:06.670Z,15.80
2023-04-28T16:08:35.644Z,15.80
2023-04-28T16:11:05.158Z,15.90
2023-04-28T16:13:37.178Z,15.90
2023-04-28T16:16:09.156Z,15.90
2023-04-28T16:18:40.059Z,16.10
2023-04-28T16:21:08.782Z,15.90
2023-04-28T16:23:37.830Z,16.20
2023-04-28T16:26:06.302Z,15.90
2023-04-28T16:28:36.231Z,16.10
2023-04-28T16:31:04.638Z,15.90
2023-04-28T16:33:33.000Z,16.00
2023-04-28T16:36:01.574Z,15.80
2023-04-28T16:38:29.984Z,16.00
2023-04-28T16:40:58.453Z,16.20
2023-04-28T16:43:26.975Z,16.10
2023-04-28T16:45:56.612Z,16.00
2023-04-28T16:48:25.507Z,15.90
2023-04-28T16:50:53.971Z,15.70
2023-04-28T16:53:22.528Z,15.50
2023-04-28T16:55:51.044Z,15.20
2023-04-28T16:58:19.641Z,15.00
2023-04-28T17:00:48.077Z,15.00
2023-04-28T17:03:18.297Z,14.80
2023-04-28T17:05:46.846Z,14.80
2023-04-28T17:08:15.298Z,14.80
2023-04-28T17:10:43.715Z,14.50
2023-04-28T17:13:12.156Z,14.40
2023-04-28T17:15:40.652Z,14.30
2023-04-28T17:18:09.092Z,14.30
2023-04-28T17:20:38.873Z,14.20
2023-04-28T17:23:07.450Z,14.20
2023-04-28T17:25:35.922Z,14.10
2023-04-28T17:28:04.369Z,14.20
2023-04-28T17:30:33.590Z,14.10
2023-04-28T17:33:02.048Z,14.00
2023-04-28T17:35:30.795Z,13.90
2023-04-28T17:38:00.575Z,14.00
2023-04-28T17:40:28.991Z,14.00
2023-04-28T17:42:58.081Z,14.10
2023-04-28T17:45:26.505Z,14.10
2023-04-28T17:47:56.389Z,14.10
2023-04-28T17:50:25.088Z,14.20
2023-04-28T17:52:54.264Z,14.10
2023-04-28T17:55:24.019Z,14.30
2023-04-28T17:57:52.537Z,14.20
2023-04-28T18:00:21.333Z,14.30
2023-04-28T18:02:49.886Z,14.40
2023-04-28T18:05:18.320Z,14.50
2023-04-28T18:07:47.127Z,14.40
2023-04-28T18:10:16.667Z,14.30
2023-04-28T18:12:46.456Z,14.50
2023-04-28T18:15:14.883Z,14.40
2023-04-28T18:17:43.317Z,14.30
2023-04-28T18:20:12.461Z,14.20
2023-04-28T18:22:41.421Z,14.20
2023-04-28T18:25:10.647Z,14.10
2023-04-28T18:27:39.117Z,14.10
2023-04-28T18:30:10.222Z,14.10
2023-04-28T18:32:38.717Z,14.10
2023-04-28T18:35:07.491Z,14.10
2023-04-28T18:37:37.075Z,14.00
2023-04-28T18:40:05.597Z,14.00
2023-04-28T18:42:34.149Z,14.00
2023-04-28T18:45:02.794Z,14.00
2023-04-28T18:47:32.491Z,14.00
2023-04-28T18:50:02.602Z,13.90
2023-04-28T18:52:31.200Z,13.90
2023-04-28T18:54:59.786Z,13.90
2023-04-28T18:57:28.090Z,13.80
2023-04-28T18:59:59.758Z,13.80
2023-04-28T19:02:28.469Z,13.80
2023-04-28T19:04:58.308Z,13.90
2023-04-28T19:07:27.057Z,13.90
2023-04-28T19:09:55.451Z,13.90
2023-04-28T19:12:24.962Z,13.80
2023-04-28T19:14:53.638Z,13.90
2023-04-28T19:17:23.385Z,13.90
2023-04-28T19:19:52.205Z,13.80
2023-04-28T19:22:35.956Z,13.80
2023-04-28T19:25:05.381Z,13.90
2023-04-28T19:27:35.515Z,13.80
2023-04-28T19:30:05.296Z,13.80
2023-04-28T19:32:33.734Z,13.80
2023-04-28T19:35:02.283Z,14.00
2023-04-28T19:37:31.184Z,14.00
2023-04-28T19:40:01.008Z,13.80
2023-04-28T19:42:30.157Z,13.80
2023-04-28T19:44:59.892Z,13.90
2023-04-28T19:47:29.597Z,13.80
2023-04-28T19:49:58.126Z,13.80
2023-04-28T19:52:26.458Z,13.80
2023-04-28T19:54:54.969Z,13.70
2023-04-28T19:57:24.789Z,13.60
2023-04-28T19:59:53.460Z,13.70
2023-04-28T20:02:22.210Z,13.70
2023-04-28T20:04:51.038Z,13.60
2023-04-28T20:07:19.498Z,13.70
2023-04-28T20:09:48.437Z,13.60
2023-04-28T20:12:17.810Z,13.60
2023-04-28T20:14:47.465Z,13.60
2023-04-28T20:17:16.231Z,13.60
2023-04-28T20:19:44.815Z,13.60
2023-04-28T20:22:13.222Z,13.50
2023-04-28T20:24:41.646Z,13.50
2023-04-28T20:27:11.313Z,13.50
2023-04-28T20:29:40.134Z,13.50
2023-04-28T20:32:10.617Z,13.50
2023-04-28T20:34:39.446Z,13.40
2023-04-28T20:37:08.233Z,13.40
2023-04-28T20:39:36.655Z,13.40
2023-04-28T20:42:06.561Z,13.40
2023-04-28T20:44:35.800Z,13.40
2023-04-28T20:47:04.253Z,13.40
2023-04-28T20:49:34.567Z,13.40
2023-04-28T20:52:06.484Z,13.40
2023-04-28T20:54:36.303Z,13.50
2023-04-28T20:57:05.045Z,13.40
2023-04-28T20:59:33.774Z,13.30
2023-04-28T21:02:02.528Z,13.30
2023-04-28T21:04:31.232Z,13.30
2023-04-28T21:07:00.961Z,13.20
2023-04-28T21:09:29.375Z,13.30
2023-04-28T21:11:57.939Z,13.20
2023-04-28T21:14:26.391Z,13.20
2023-04-28T21:16:55.009Z,13.20
2023-04-28T21:19:23.593Z,13.20
2023-04-28T21:21:52.443Z,13.20
2023-04-28T21:24:22.236Z,13.10
2023-04-28T21:26:50.650Z,13.20
2023-04-28T21:29:19.465Z,13.10
2023-04-28T21:31:48.179Z,13.00
2023-04-28T21:34:16.697Z,12.90
2023-04-28T21:36:45.086Z,12.80
2023-04-28T21:39:13.597Z,12.30
2023-04-28T21:41:43.279Z,12.40
2023-04-28T21:44:12.055Z,12.50
2023-04-28T21:46:40.755Z,12.50
2023-04-28T21:49:09.191Z,12.60
2023-04-28T21:51:37.757Z,12.50
2023-04-28T21:54:06.191Z,12.30
2023-04-28T21:56:34.630Z,12.40
2023-04-28T21:59:04.531Z,12.40
2023-04-28T22:01:33.288Z,12.30
2023-04-28T22:04:02.381Z,12.30
2023-04-28T22:06:32.197Z,12.20
2023-04-28T22:09:01.480Z,12.30
2023-04-28T22:11:29.903Z,12.20
2023-04-28T22:13:58.302Z,12.30
2023-04-28T22:16:28.145Z,12.30
2023-04-28T22:18:56.968Z,12.20
2023-04-28T22:21:25.593Z,12.20
2023-04-28T22:23:54.024Z,12.10
2023-04-28T22:26:22.694Z,12.00
2023-04-28T22:28:51.657Z,11.90
2023-04-28T22:31:20.454Z,11.90
2023-04-28T22:33:50.166Z,11.90
2023-04-28T22:36:18.545Z,12.00
2023-04-28T22:38:46.781Z,12.00
2023-04-28T22:41:15.250Z,12.10
2023-04-28T22:43:43.521Z,12.00
2023-04-28T22:46:12.099Z,12.00
2023-04-28T22:48:41.100Z,11.80
2023-04-28T22:51:10.824Z,11.80
2023-04-28T22:53:39.304Z,11.80
2023-04-28T22:56:08.049Z,12.00
2023-04-28T22:58:36.484Z,12.10
2023-04-28T23:01:04.926Z,12.10
2023-04-28T23:03:33.795Z,11.90
2023-04-28T23:06:02.401Z,12.10
2023-04-28T23:08:32.214Z,12.10
2023-04-28T23:11:00.629Z,11.80
2023-04-28T23:13:29.036Z,11.80
2023-04-28T23:16:00.310Z,11.80
2023-04-28T23:18:32.933Z,11.80
2023-04-28T23:21:01.495Z,11.70
2023-04-28T23:23:32.631Z,11.90
2023-04-28T23:26:01.722Z,11.80
2023-04-28T23:28:30.520Z,11.80
2023-04-28T23:30:58.993Z,11.60
2023-04-28T23:33:27.607Z,11.70
2023-04-28T23:35:56.372Z,11.50
2023-04-28T23:38:26.355Z,11.50
2023-04-28T23:40:56.055Z,11.40
2023-04-28T23:43:24.490Z,11.30
2023-04-28T23:45:52.954Z,11.50
2023-04-28T23:48:22.306Z,11.40
2023-04-28T23:50:50.688Z,11.40
2023-04-28T23:53:19.198Z,11.40
2023-04-28T23:55:47.660Z,11.40
2023-04-28T23:58:17.745Z,11.30
